createdAt,value
2019-01-28T00:00:02.775Z,3.57
2019-01-28T00:05:07.208Z,4.27
2019-01-28T00:10:11.407Z,4.13
2019-01-28T00:15:15.641Z,4.53
2019-01-28T00:20:19.931Z,5.30
2019-01-28T00:25:24.166Z,6.30
2019-01-28T00:30:28.453Z,6.33
2019-01-28T00:35:32.636Z,5.97
2019-01-28T00:40:36.958Z,6.73
2019-01-28T00:45:41.168Z,7.97
2019-01-28T00:50:45.342Z,8.67
2019-01-28T00:55:49.629Z,9.30
2019-01-28T01:00:53.838Z,8.57
2019-01-28T01:05:58.002Z,8.03
2019-01-28T01:11:03.473Z,8.57
2019-01-28T01:16:07.680Z,8.70
2019-01-28T01:21:11.880Z,9.40
2019-01-28T01:26:16.143Z,8.77
2019-01-28T01:31:20.543Z,8.27
2019-01-28T01:36:24.736Z,7.43
2019-01-28T01:41:28.939Z,7.80
2019-01-28T01:46:34.259Z,7.73
2019-01-28T01:51:38.531Z,7.70
2019-01-28T01:56:42.723Z,6.53
2019-01-28T02:01:46.920Z,6.50
2019-01-28T02:06:51.206Z,6.37
2019-01-28T02:11:55.399Z,6.50
2019-01-28T02:16:59.591Z,6.47
2019-01-28T02:22:03.895Z,5.80
2019-01-28T02:27:08.103Z,5.93
2019-01-28T02:32:12.443Z,5.83
2019-01-28T02:37:16.793Z,4.80
2019-01-28T02:42:20.990Z,4.90
2019-01-28T02:47:25.287Z,5.07
2019-01-28T02:52:29.451Z,4.93
2019-01-28T02:57:33.655Z,5.43
2019-01-28T03:02:37.907Z,5.80
2019-01-28T03:07:42.151Z,5.50
2019-01-28T03:12:46.424Z,5.53
2019-01-28T03:17:50.620Z,5.60
2019-01-28T03:22:54.872Z,5.80
2019-01-28T03:27:59.059Z,5.90
2019-01-28T03:33:03.245Z,6.00
2019-01-28T03:38:07.672Z,6.30
2019-01-28T03:43:11.923Z,6.70
2019-01-28T03:48:16.098Z,5.43
2019-01-28T03:53:20.754Z,6.33
2019-01-28T03:58:24.984Z,5.10
2019-01-28T04:03:29.319Z,5.37
2019-01-28T04:08:33.534Z,4.47
2019-01-28T04:13:40.471Z,6.00
2019-01-28T04:18:44.730Z,6.93
2019-01-28T04:23:48.934Z,6.03
2019-01-28T04:28:53.147Z,6.60
2019-01-28T04:33:57.350Z,6.27
2019-01-28T04:39:01.773Z,6.33
2019-01-28T04:44:05.927Z,6.23
2019-01-28T04:49:10.117Z,5.53
2019-01-28T04:54:14.291Z,5.17
2019-01-28T04:59:18.547Z,4.83
2019-01-28T05:04:22.818Z,5.20
2019-01-28T05:09:28.464Z,5.20
2019-01-28T05:14:32.671Z,4.67
2019-01-28T05:19:36.891Z,5.43
2019-01-28T05:24:41.459Z,5.07
2019-01-28T05:29:45.692Z,5.40
2019-01-28T05:34:49.855Z,5.40
2019-01-28T05:39:54.123Z,4.00
2019-01-28T05:44:58.296Z,3.77
2019-01-28T05:50:02.466Z,3.50
2019-01-28T05:55:07.519Z,3.13
2019-01-28T06:00:15.763Z,2.87
2019-01-28T06:05:19.950Z,1.90
2019-01-28T06:10:24.106Z,2.33
2019-01-28T06:15:28.300Z,2.20
2019-01-28T06:20:32.479Z,2.33
2019-01-28T06:25:36.701Z,2.80
2019-01-28T06:30:40.878Z,2.63
2019-01-28T06:35:45.198Z,2.57
2019-01-28T06:40:49.458Z,2.20
2019-01-28T06:45:53.643Z,2.70
2019-01-28T06:50:57.827Z,2.50
2019-01-28T06:56:02.033Z,2.60
2019-01-28T07:01:06.407Z,2.80
2019-01-28T07:06:10.580Z,2.57
2019-01-28T07:11:14.752Z,2.77
2019-01-28T07:16:18.954Z,2.77
2019-01-28T07:21:22.706Z,2.30
2019-01-28T07:26:26.441Z,2.00
2019-01-28T07:31:30.084Z,2.30
2019-01-28T07:36:33.743Z,1.80
2019-01-28T07:41:37.483Z,1.87
2019-01-28T07:46:41.235Z,2.00
2019-01-28T07:51:44.991Z,1.80
2019-01-28T07:56:48.645Z,1.80
2019-01-28T08:01:52.350Z,2.00
2019-01-28T08:06:59.485Z,1.80
2019-01-28T08:12:01.424Z,2.20
2019-01-28T08:17:05.156Z,1.93
2019-01-28T08:22:08.810Z,1.90
2019-01-28T08:27:12.542Z,2.07
2019-01-28T08:32:16.276Z,1.87
2019-01-28T08:37:20.012Z,2.03
2019-01-28T08:42:23.818Z,2.10
2019-01-28T08:47:27.472Z,1.40
2019-01-28T08:52:31.227Z,1.70
2019-01-28T08:57:35.019Z,1.70
2019-01-28T09:02:38.759Z,2.00
2019-01-28T09:07:42.526Z,2.30
2019-01-28T09:12:47.279Z,2.13
2019-01-28T09:17:51.184Z,2.30
2019-01-28T09:22:54.851Z,2.20
2019-01-28T09:27:58.607Z,2.50
2019-01-28T09:33:02.303Z,2.57
2019-01-28T09:38:06.099Z,2.20
2019-01-28T09:43:10.051Z,1.80
2019-01-28T09:48:14.647Z,1.90
2019-01-28T09:53:18.389Z,2.03
2019-01-28T09:58:22.122Z,1.90
2019-01-28T10:03:25.909Z,1.70
2019-01-28T10:08:29.643Z,1.80
2019-01-28T10:13:33.404Z,1.40
2019-01-28T10:18:41.742Z,1.37
2019-01-28T10:23:42.543Z,1.10
2019-01-28T10:28:46.254Z,1.10
2019-01-28T10:33:50.455Z,0.40
2019-01-28T10:38:54.634Z,0.70
2019-01-28T10:43:58.846Z,0.60
2019-01-28T10:49:03.117Z,0.63
2019-01-28T10:54:07.324Z,0.60
2019-01-28T10:59:11.619Z,0.53
2019-01-28T11:04:15.958Z,0.60
2019-01-28T11:09:20.220Z,0.50
2019-01-28T11:14:24.553Z,0.50
2019-01-28T11:19:28.827Z,0.80
2019-01-28T11:24:33.086Z,0.60
2019-01-28T11:29:37.573Z,0.70
2019-01-28T11:34:41.926Z,0.63
2019-01-28T11:39:46.147Z,0.70
2019-01-28T11:44:50.479Z,0.70
2019-01-28T11:49:54.675Z,0.80
2019-01-28T11:54:58.872Z,0.77
2019-01-28T12:00:04.596Z,0.80
2019-01-28T12:05:10.845Z,0.60
2019-01-28T12:10:15.719Z,0.73
2019-01-28T12:15:20.396Z,0.80
2019-01-28T12:20:24.579Z,0.93
2019-01-28T12:25:28.866Z,0.80
2019-01-28T12:30:33.543Z,1.00
2019-01-28T12:35:37.731Z,0.80
2019-01-28T12:40:41.927Z,1.00
2019-01-28T12:45:46.158Z,1.10
2019-01-28T12:50:50.363Z,0.90
2019-01-28T12:55:55.619Z,0.97
2019-01-28T13:01:02.947Z,1.00
2019-01-28T13:06:07.151Z,1.17
2019-01-28T13:11:11.344Z,1.30
2019-01-28T13:16:15.670Z,3.80
2019-01-28T13:21:19.947Z,3.77
2019-01-28T13:26:24.264Z,1.87
2019-01-28T13:31:32.728Z,2.60
2019-01-28T13:36:34.388Z,1.50
2019-01-28T13:41:39.918Z,1.57
2019-01-28T13:46:44.916Z,2.60
2019-01-28T13:51:49.231Z,3.57
2019-01-28T13:56:53.494Z,5.23
2019-01-28T14:01:57.800Z,6.37
2019-01-28T14:07:01.992Z,6.13
2019-01-28T14:12:06.476Z,5.80
2019-01-28T14:17:10.697Z,6.50
2019-01-28T14:22:14.915Z,6.83
2019-01-28T14:27:19.155Z,5.57
2019-01-28T14:32:23.386Z,5.47
2019-01-28T14:37:27.756Z,6.50
2019-01-28T14:42:33.163Z,7.50
2019-01-28T14:47:37.347Z,10.23
2019-01-28T14:52:41.535Z,9.13
2019-01-28T14:57:45.801Z,10.70
2019-01-28T15:02:50.080Z,13.47
2019-01-28T15:07:54.447Z,14.27
2019-01-28T15:12:58.681Z,15.10
2019-01-28T15:18:02.867Z,17.03
2019-01-28T15:23:07.050Z,19.17
2019-01-28T15:28:11.390Z,18.03
2019-01-28T15:33:15.647Z,17.43
2019-01-28T15:38:19.963Z,19.20
2019-01-28T15:43:24.203Z,18.70
2019-01-28T15:48:28.549Z,20.90
2019-01-28T15:53:32.761Z,20.40
2019-01-28T15:58:36.967Z,21.17
2019-01-28T16:03:41.324Z,19.23
2019-01-28T16:08:45.548Z,20.63
2019-01-28T16:13:49.868Z,23.87
2019-01-28T16:18:54.088Z,21.37
2019-01-28T16:23:58.336Z,19.60
2019-01-28T16:29:02.596Z,18.77
2019-01-28T16:34:06.793Z,20.70
2019-01-28T16:39:11.011Z,23.17
2019-01-28T16:44:15.336Z,24.50
2019-01-28T16:49:19.565Z,25.03
2019-01-28T16:54:23.823Z,25.30
2019-01-28T16:59:28.123Z,24.97
2019-01-28T17:04:32.368Z,23.83
2019-01-28T17:09:36.596Z,24.10
2019-01-28T17:14:40.835Z,24.37
2019-01-28T17:19:45.053Z,22.20
2019-01-28T17:24:49.272Z,16.43
2019-01-28T17:29:53.491Z,11.37
2019-01-28T17:34:57.764Z,10.73
2019-01-28T17:40:01.966Z,8.53
2019-01-28T17:45:08.092Z,6.77
2019-01-28T17:50:14.465Z,5.53
2019-01-28T17:55:18.739Z,4.80
2019-01-28T18:00:32.827Z,4.13
2019-01-28T18:05:39.189Z,4.50
2019-01-28T18:10:43.462Z,5.03
2019-01-28T18:15:47.984Z,4.90
2019-01-28T18:20:53.736Z,5.73
2019-01-28T18:25:58.072Z,5.70
2019-01-28T18:31:02.379Z,5.67
2019-01-28T18:36:08.741Z,5.30
2019-01-28T18:41:13.050Z,5.33
2019-01-28T18:46:17.344Z,5.43
2019-01-28T18:51:21.575Z,6.17
2019-01-28T18:56:25.956Z,5.77
2019-01-28T19:01:30.288Z,5.90
2019-01-28T19:06:51.000Z,5.23
2019-01-28T19:12:14.274Z,6.00
2019-01-28T19:17:40.180Z,4.60
2019-01-28T19:22:45.056Z,4.00
2019-01-28T19:27:49.384Z,4.33
2019-01-28T19:32:53.748Z,5.13
2019-01-28T19:37:58.001Z,5.17
2019-01-28T19:43:02.198Z,5.43
2019-01-28T19:48:07.138Z,6.23
2019-01-28T19:53:11.759Z,6.27
2019-01-28T19:58:16.100Z,5.97
2019-01-28T20:03:20.766Z,6.70
2019-01-28T20:08:25.220Z,6.47
2019-01-28T20:13:29.936Z,7.03
2019-01-28T20:18:35.441Z,7.20
2019-01-28T20:23:39.747Z,6.80
2019-01-28T20:28:44.162Z,6.83
2019-01-28T20:33:48.467Z,7.40
2019-01-28T20:38:52.718Z,7.83
2019-01-28T20:43:56.938Z,6.93
2019-01-28T20:49:01.217Z,7.80
2019-01-28T20:54:05.743Z,7.30
2019-01-28T20:59:10.058Z,6.97
2019-01-28T21:04:14.387Z,6.30
2019-01-28T21:09:18.773Z,7.20
2019-01-28T21:14:23.134Z,7.10
2019-01-28T21:19:27.513Z,7.50
2019-01-28T21:24:31.929Z,7.83
2019-01-28T21:29:36.237Z,7.93
2019-01-28T21:34:40.440Z,8.07
2019-01-28T21:39:46.160Z,8.23
2019-01-28T21:44:50.391Z,7.90
2019-01-28T21:49:54.592Z,8.03
2019-01-28T21:54:59.476Z,7.73
2019-01-28T22:00:05.128Z,8.77
2019-01-28T22:05:09.428Z,7.60
2019-01-28T22:10:14.923Z,6.07
2019-01-28T22:15:19.317Z,5.70
2019-01-28T22:20:23.676Z,6.37
2019-01-28T22:25:27.990Z,5.20
2019-01-28T22:30:32.348Z,4.27
2019-01-28T22:35:36.665Z,5.80
2019-01-28T22:40:40.859Z,4.03
2019-01-28T22:45:45.051Z,4.30
2019-01-28T22:50:49.269Z,3.57
2019-01-28T22:55:53.491Z,3.90
2019-01-28T23:01:18.006Z,4.07
2019-01-28T23:06:22.203Z,3.57
2019-01-28T23:11:27.032Z,3.90
2019-01-28T23:16:31.332Z,3.83
2019-01-28T23:21:36.168Z,3.50
2019-01-28T23:26:40.578Z,3.27
2019-01-28T23:31:44.783Z,3.50
2019-01-28T23:36:49.086Z,3.50
2019-01-28T23:41:53.300Z,3.73
2019-01-28T23:46:57.540Z,3.70
2019-01-28T23:52:01.738Z,3.50
2019-01-28T23:57:05.974Z,3.93
